Time;durP1;ratioP1;P1;durP2;ratioP2;P2;SDS_P1;SDS_P2;PMS_P1;PMS_P2;Temp;Humidity;BMP_temperature;BMP_pressure;BME280_temperature;BME280_humidity;BME280_pressure;Samples;Min_cycle;Max_cycle;Signal;HPM_P1;HPM_P2
2023/11/12 00:01:35;;;;;;;18.90;11.25;;;;;;;4.50;100.00;99966.50;5059572;28;20073;-79
2023/11/12 00:04:02;;;;;;;17.42;11.20;;;;;;;4.41;100.00;99962.13;5057049;28;20045;-79
2023/11/12 00:06:30;;;;;;;14.75;9.90;;;;;;;4.50;100.00;99980.28;5055266;28;20101;-79
2023/11/12 00:08:57;;;;;;;14.77;9.98;;;;;;;4.41;100.00;99964.72;5054684;28;20056;-80
2023/11/12 00:11:28;;;;;;;17.20;10.98;;;;;;;4.40;100.00;99970.84;5054817;28;20071;-81
2023/11/12 00:13:55;;;;;;;18.50;10.25;;;;;;;4.21;100.00;99962.09;5055249;28;20049;-80
2023/11/12 00:16:22;;;;;;;15.15;10.30;;;;;;;4.10;100.00;99963.94;5055019;28;20053;-81
2023/11/12 00:18:48;;;;;;;14.65;10.18;;;;;;;4.07;100.00;99965.03;5055436;28;20507;-81
2023/11/12 00:21:15;;;;;;;14.88;10.40;;;;;;;4.02;100.00;99962.00;5054295;28;20061;-80
2023/11/12 00:23:45;;;;;;;15.38;10.70;;;;;;;3.99;100.00;99957.09;5054391;28;20132;-80
2023/11/12 00:26:16;;;;;;;14.77;10.80;;;;;;;4.04;100.00;99960.13;5054878;28;20045;-80
2023/11/12 00:28:45;;;;;;;16.15;10.60;;;;;;;3.96;100.00;99954.75;5055297;28;20063;-81
2023/11/12 00:31:12;;;;;;;17.67;11.25;;;;;;;3.94;100.00;99959.25;5057163;28;20045;-80
2023/11/12 00:33:39;;;;;;;17.05;10.55;;;;;;;3.93;100.00;99957.63;5058720;28;20057;-80
2023/11/12 00:36:09;;;;;;;16.67;10.82;;;;;;;4.03;100.00;99963.66;5058645;28;20418;-80
2023/11/12 00:38:36;;;;;;;16.17;10.88;;;;;;;4.00;100.00;99961.31;5058487;28;20110;-79
2023/11/12 00:41:05;;;;;;;15.50;10.57;;;;;;;3.87;100.00;99958.13;5058261;28;20532;-80
2023/11/12 00:43:34;;;;;;;14.10;10.15;;;;;;;3.80;100.00;99955.22;5058253;28;20056;-80
2023/11/12 00:46:04;;;;;;;16.75;10.52;;;;;;;3.82;100.00;99955.09;5057486;28;20048;-79
2023/11/12 00:48:31;;;;;;;17.65;10.93;;;;;;;3.72;100.00;99954.25;5058008;28;20071;-80
2023/11/12 00:51:00;;;;;;;19.05;11.77;;;;;;;3.72;100.00;99964.59;5057982;28;20397;-79
2023/11/12 00:53:28;;;;;;;21.25;12.50;;;;;;;3.70;100.00;99966.50;5058844;28;20434;-80
2023/11/12 00:55:59;;;;;;;16.13;11.00;;;;;;;3.60;100.00;99940.56;5058541;28;20056;-79
2023/11/12 00:58:26;;;;;;;17.83;11.60;;;;;;;3.62;100.00;99949.84;5057846;28;20067;-80
2023/11/12 01:00:53;;;;;;;16.25;10.98;;;;;;;3.59;100.00;99944.94;5057919;28;20056;-80
2023/11/12 01:03:22;;;;;;;17.08;10.98;;;;;;;3.63;100.00;99946.31;5057844;28;20439;-80
2023/11/12 01:05:52;;;;;;;19.67;12.18;;;;;;;3.51;100.00;99949.91;5057227;28;20060;-79
2023/11/12 01:08:19;;;;;;;16.65;11.60;;;;;;;3.54;100.00;99951.44;5059620;28;20364;-81
2023/11/12 01:10:47;;;;;;;19.85;12.30;;;;;;;3.41;100.00;99943.88;5059124;28;20048;-80
2023/11/12 01:13:14;;;;;;;18.20;12.98;;;;;;;3.38;100.00;99949.28;5057969;28;20506;-81
2023/11/12 01:15:42;;;;;;;20.80;12.95;;;;;;;3.39;100.00;99956.09;5058148;28;20061;-80
2023/11/12 01:18:13;;;;;;;19.33;12.88;;;;;;;3.48;100.00;99957.13;5049982;28;20139;-80
2023/11/12 01:20:41;;;;;;;20.90;13.55;;;;;;;3.44;100.00;99953.97;5057515;28;20080;-80
2023/11/12 01:23:08;;;;;;;21.13;13.60;;;;;;;3.32;100.00;99942.84;5057698;28;20073;-80
2023/11/12 01:25:35;;;;;;;23.70;13.43;;;;;;;3.34;100.00;99945.31;5057374;28;20122;-79
2023/11/12 01:28:03;;;;;;;22.90;13.90;;;;;;;3.31;100.00;99940.38;5057172;28;20503;-79
2023/11/12 01:30:30;;;;;;;21.00;13.95;;;;;;;3.29;100.00;99952.66;5058119;28;20060;-81
2023/11/12 01:32:57;;;;;;;18.88;13.30;;;;;;;3.31;100.00;99953.31;5058445;28;20080;-80
2023/11/12 01:35:23;;;;;;;20.13;12.95;;;;;;;3.26;100.00;99948.56;5058839;28;20098;-80
2023/11/12 01:37:52;;;;;;;17.75;13.27;;;;;;;3.28;100.00;99954.41;5062027;28;20045;-80
2023/11/12 01:40:20;;;;;;;21.95;13.88;;;;;;;3.26;100.00;99952.91;5058356;28;20080;-81
2023/11/12 01:42:47;;;;;;;21.88;13.38;;;;;;;3.24;100.00;99957.38;5056249;28;20054;-80
2023/11/12 01:45:14;;;;;;;19.67;13.55;;;;;;;3.16;100.00;99941.66;5057290;28;20098;-80
2023/11/12 01:47:44;;;;;;;22.50;13.20;;;;;;;3.24;100.00;99950.44;5056812;28;20053;-78
2023/11/12 01:50:12;;;;;;;21.60;13.55;;;;;;;3.22;100.00;99941.16;5055233;28;20123;-79
2023/11/12 01:52:41;;;;;;;22.90;13.70;;;;;;;3.26;100.00;99939.97;5054642;28;20204;-79
2023/11/12 01:55:10;;;;;;;24.02;13.90;;;;;;;3.25;100.00;99946.91;5055108;28;20060;-78
2023/11/12 01:57:40;;;;;;;24.25;13.57;;;;;;;3.22;100.00;99943.75;5053235;28;20037;-79
2023/11/12 02:00:11;;;;;;;20.88;14.32;;;;;;;3.15;100.00;99945.19;5054812;28;20056;-79
2023/11/12 02:02:38;;;;;;;19.58;13.43;;;;;;;3.09;100.00;99943.13;5055909;28;20049;-79
2023/11/12 02:05:08;;;;;;;23.38;13.60;;;;;;;3.13;100.00;99941.91;5055629;28;20096;-80
2023/11/12 02:07:37;;;;;;;19.95;13.55;;;;;;;3.13;100.00;99939.34;5055252;28;20067;-80
2023/11/12 02:10:09;;;;;;;22.38;13.45;;;;;;;3.15;100.00;99946.03;5056084;28;20048;-80
2023/11/12 02:12:38;;;;;;;19.55;13.65;;;;;;;3.17;100.00;99943.31;5055505;28;20048;-80
2023/11/12 02:15:08;;;;;;;24.65;14.77;;;;;;;3.14;100.00;99951.31;5055793;28;20487;-80
2023/11/12 02:17:35;;;;;;;21.40;13.98;;;;;;;3.17;100.00;99953.66;5056837;28;20052;-80
2023/11/12 02:20:09;;;;;;;21.85;14.35;;;;;;;3.18;100.00;99952.72;5056501;28;20133;-80
2023/11/12 02:22:36;;;;;;;24.88;14.45;;;;;;;3.18;100.00;99948.34;5058999;28;20116;-80
2023/11/12 02:25:08;;;;;;;23.17;14.60;;;;;;;3.37;100.00;99952.81;5058165;28;20126;-80
2023/11/12 02:27:35;;;;;;;30.20;14.80;;;;;;;3.38;100.00;99957.03;5056377;28;20065;-80
2023/11/12 02:30:01;;;;;;;25.25;14.80;;;;;;;3.47;100.00;99956.28;5055486;28;20558;-79
2023/11/12 02:32:30;;;;;;;23.00;14.07;;;;;;;3.59;100.00;99963.03;5055050;28;20053;-79
2023/11/12 02:34:57;;;;;;;24.80;14.02;;;;;;;3.54;100.00;99957.44;5055155;28;20085;-79
2023/11/12 02:37:24;;;;;;;20.55;14.18;;;;;;;3.59;100.00;99950.09;5055510;28;20080;-78
2023/11/12 02:39:51;;;;;;;22.08;13.80;;;;;;;3.61;100.00;99955.97;5055310;28;20152;-79
2023/11/12 02:42:20;;;;;;;25.45;16.13;;;;;;;3.55;100.00;99943.53;5054737;28;20473;-79
2023/11/12 02:44:49;;;;;;;21.30;14.10;;;;;;;3.65;100.00;99959.94;5054817;28;20562;-79
2023/11/12 02:47:16;;;;;;;21.42;14.40;;;;;;;3.66;100.00;99955.59;5055583;28;20053;-78
2023/11/12 02:50:05;;;;;;;22.90;14.80;;;;;;;3.79;100.00;99955.34;5056414;28;20052;-79
2023/11/12 02:52:32;;;;;;;23.75;14.07;;;;;;;3.75;100.00;99959.19;5050286;28;20415;-80
2023/11/12 02:54:59;;;;;;;24.17;14.05;;;;;;;3.72;100.00;99949.91;5056101;28;20085;-80
2023/11/12 02:57:27;;;;;;;27.15;13.82;;;;;;;3.81;100.00;99953.47;5056467;28;20059;-80
2023/11/12 02:59:53;;;;;;;20.35;12.82;;;;;;;3.88;100.00;99954.59;5056131;28;20114;-79
2023/11/12 03:02:22;;;;;;;22.17;13.30;;;;;;;3.90;100.00;99945.75;5056740;28;20076;-81
2023/11/12 03:04:49;;;;;;;24.00;14.60;;;;;;;3.87;100.00;99940.81;5055851;28;20052;-79
2023/11/12 03:07:23;;;;;;;23.10;13.90;;;;;;;3.89;100.00;99945.88;5056037;28;20057;-80
2023/11/12 03:09:50;;;;;;;21.75;13.40;;;;;;;3.92;100.00;99949.03;5055988;28;20126;-79
2023/11/12 03:12:17;;;;;;;20.10;13.07;;;;;;;3.95;100.00;99940.19;5055549;28;20053;-80
2023/11/12 03:14:46;;;;;;;20.05;12.10;;;;;;;4.10;100.00;99949.25;5055270;28;20056;-80
2023/11/12 03:17:12;;;;;;;20.77;13.07;;;;;;;4.06;100.00;99947.84;5054728;28;20045;-80
2023/11/12 03:19:39;;;;;;;20.88;13.32;;;;;;;4.07;100.00;99938.31;5054536;28;20131;-79
2023/11/12 03:22:08;;;;;;;20.77;12.93;;;;;;;4.09;100.00;99939.00;5054378;28;20048;-80
2023/11/12 03:24:35;;;;;;;22.83;12.63;;;;;;;4.00;100.00;99935.44;5055514;28;20128;-79
2023/11/12 03:27:03;;;;;;;16.65;12.02;;;;;;;4.02;100.00;99936.13;5054719;28;20094;-80
2023/11/12 03:29:30;;;;;;;19.48;12.43;;;;;;;3.94;100.00;99933.38;5055429;28;20479;-80
2023/11/12 03:31:59;;;;;;;19.85;12.63;;;;;;;3.92;100.00;99930.09;5054548;28;20088;-79
2023/11/12 03:34:32;;;;;;;18.40;12.60;;;;;;;3.88;100.00;99924.34;5056822;28;20052;-83
2023/11/12 03:36:58;;;;;;;21.67;12.75;;;;;;;3.79;100.00;99921.72;5055043;28;20087;-79
2023/11/12 03:39:25;;;;;;;20.88;12.57;;;;;;;3.83;100.00;99921.34;5055280;28;20112;-81
2023/11/12 03:41:55;;;;;;;16.65;12.63;;;;;;;3.87;100.00;99925.31;5055301;28;20063;-81
2023/11/12 03:44:22;;;;;;;19.75;12.80;;;;;;;3.76;100.00;99919.41;5055748;28;20117;-80
2023/11/12 03:46:49;;;;;;;18.92;12.20;;;;;;;3.65;100.00;99912.56;5054928;28;20124;-80
2023/11/12 03:49:17;;;;;;;19.27;13.63;;;;;;;3.62;100.00;99921.38;5050717;28;20456;-79
2023/11/12 03:51:44;;;;;;;20.88;12.68;;;;;;;3.55;100.00;99917.69;5053145;28;20060;-79
2023/11/12 03:54:11;;;;;;;25.42;12.90;;;;;;;3.45;100.00;99918.56;5045724;28;20132;-79
2023/11/12 03:56:38;;;;;;;20.35;12.57;;;;;;;3.38;100.00;99913.09;5053649;28;20059;-79
2023/11/12 03:59:04;;;;;;;19.17;12.15;;;;;;;3.33;100.00;99907.47;5053108;28;20049;-78
2023/11/12 04:01:31;;;;;;;19.00;12.80;;;;;;;3.29;100.00;99912.09;5053668;28;20081;-79
2023/11/12 04:03:58;;;;;;;16.45;12.05;;;;;;;3.30;100.00;99915.50;5053514;28;20133;-79
2023/11/12 04:06:26;;;;;;;20.67;12.57;;;;;;;3.39;100.00;99904.38;5057373;28;20458;-80
2023/11/12 04:08:53;;;;;;;19.23;12.48;;;;;;;3.39;100.00;99917.31;5057897;28;20447;-80
2023/11/12 04:11:20;;;;;;;20.33;12.73;;;;;;;3.43;100.00;99908.34;5057583;28;20796;-80
2023/11/12 04:13:46;;;;;;;21.88;12.80;;;;;;;3.50;100.00;99903.50;5058345;28;20072;-79
2023/11/12 04:16:13;;;;;;;26.00;13.88;;;;;;;3.59;100.00;99911.31;5058475;28;20140;-80
2023/11/12 04:18:40;;;;;;;25.00;14.07;;;;;;;3.71;100.00;99906.88;5058419;28;20049;-80
2023/11/12 04:21:06;;;;;;;22.85;14.07;;;;;;;3.81;100.00;99912.06;5057223;28;20343;-79
2023/11/12 04:23:34;;;;;;;23.35;13.57;;;;;;;3.93;100.00;99908.44;5036832;28;20053;-79
2023/11/12 04:26:01;;;;;;;20.95;13.48;;;;;;;3.87;100.00;99899.41;5039629;28;20049;-80
2023/11/12 04:28:28;;;;;;;20.95;15.00;;;;;;;3.84;100.00;99901.44;5039502;28;20100;-79
2023/11/12 04:30:56;;;;;;;22.45;14.40;;;;;;;3.84;100.00;99901.44;5039073;28;20064;-79
2023/11/12 04:33:22;;;;;;;22.90;14.27;;;;;;;3.73;100.00;99904.16;5039062;28;20466;-79
2023/11/12 04:35:49;;;;;;;25.25;14.85;;;;;;;3.66;100.00;99899.50;5038991;28;20057;-79
2023/11/12 04:38:16;;;;;;;20.02;13.95;;;;;;;3.65;100.00;99903.03;5039686;28;20099;-79
2023/11/12 04:40:46;;;;;;;23.83;13.82;;;;;;;3.66;100.00;99907.25;5038871;28;20168;-79
2023/11/12 04:43:14;;;;;;;24.77;14.75;;;;;;;3.58;100.00;99912.25;5031610;28;20099;-79
2023/11/12 04:45:41;;;;;;;21.70;13.48;;;;;;;3.52;100.00;99912.75;5038426;28;20183;-79
2023/11/12 04:48:07;;;;;;;23.13;14.45;;;;;;;3.46;100.00;99907.28;5038327;28;20053;-79
2023/11/12 04:50:34;;;;;;;21.42;13.82;;;;;;;3.38;100.00;99915.66;5039029;28;20049;-79
2023/11/12 04:53:01;;;;;;;20.63;14.27;;;;;;;3.39;100.00;99921.66;5038537;28;20084;-79
2023/11/12 04:55:27;;;;;;;21.27;14.13;;;;;;;3.36;100.00;99917.56;5039406;28;20061;-79
2023/11/12 04:57:55;;;;;;;22.33;14.50;;;;;;;3.35;100.00;99915.91;5039592;28;20049;-79
2023/11/12 05:00:22;;;;;;;23.00;14.85;;;;;;;3.26;100.00;99911.53;5038759;28;20107;-80
2023/11/12 05:02:49;;;;;;;25.30;14.13;;;;;;;3.18;100.00;99913.94;5039505;28;20053;-81
2023/11/12 05:05:16;;;;;;;22.55;13.77;;;;;;;3.23;100.00;99916.97;5038188;28;20077;-80
2023/11/12 05:07:43;;;;;;;22.67;14.20;;;;;;;3.18;100.00;99927.69;5040554;28;20068;-81
2023/11/12 05:10:11;;;;;;;22.40;13.88;;;;;;;3.12;100.00;99924.78;5041406;28;20558;-81
2023/11/12 05:12:38;;;;;;;23.67;15.40;;;;;;;3.09;100.00;99936.19;5041736;28;20111;-81
2023/11/12 05:15:07;;;;;;;23.67;14.65;;;;;;;3.14;100.00;99925.47;5040850;28;20396;-80
2023/11/12 05:17:34;;;;;;;23.83;15.02;;;;;;;3.02;100.00;99922.09;5038302;28;20151;-79
2023/11/12 05:20:00;;;;;;;23.85;13.85;;;;;;;3.01;100.00;99928.22;5039511;28;20136;-79
2023/11/12 05:22:27;;;;;;;21.83;14.07;;;;;;;2.89;100.00;99932.63;5039776;28;20053;-79
2023/11/12 05:24:54;;;;;;;22.90;13.75;;;;;;;2.83;100.00;99933.13;5038227;28;20194;-80
2023/11/12 05:27:21;;;;;;;25.45;14.73;;;;;;;2.83;100.00;99934.91;5038916;28;20050;-79
2023/11/12 05:29:47;;;;;;;23.48;13.82;;;;;;;2.87;100.00;99934.50;5038534;28;20419;-79
2023/11/12 05:32:15;;;;;;;24.13;13.98;;;;;;;2.96;100.00;99940.69;5038061;28;20114;-79
2023/11/12 05:34:42;;;;;;;22.13;14.27;;;;;;;2.87;100.00;99933.69;5038112;28;20079;-79
2023/11/12 05:37:08;;;;;;;23.15;14.57;;;;;;;2.79;100.00;99939.50;5037530;28;20152;-79
2023/11/12 05:39:35;;;;;;;21.88;13.18;;;;;;;2.79;100.00;99949.81;5037884;28;20104;-80
2023/11/12 05:42:02;;;;;;;24.20;14.73;;;;;;;2.81;100.00;99942.78;5037759;28;20061;-79
2023/11/12 05:44:29;;;;;;;25.45;15.38;;;;;;;2.84;100.00;99946.84;5036407;28;20068;-79
2023/11/12 05:46:56;;;;;;;21.75;13.93;;;;;;;2.85;100.00;99938.16;5036695;28;20072;-79
2023/11/12 05:49:24;;;;;;;23.65;14.85;;;;;;;2.92;100.00;99949.63;5037268;28;20053;-80
2023/11/12 05:51:51;;;;;;;23.88;14.75;;;;;;;2.83;100.00;99960.75;5037584;28;20056;-80
2023/11/12 05:54:17;;;;;;;25.30;16.10;;;;;;;2.76;100.00;99955.25;5037017;28;20084;-81
2023/11/12 05:56:44;;;;;;;22.58;14.45;;;;;;;2.71;100.00;99947.03;5037407;28;20324;-80
2023/11/12 05:59:12;;;;;;;24.58;14.80;;;;;;;2.73;100.00;99950.31;5038035;28;20053;-82
2023/11/12 06:01:39;;;;;;;24.00;15.13;;;;;;;2.69;100.00;99954.09;5038179;28;20057;-82
2023/11/12 06:04:06;;;;;;;23.63;15.50;;;;;;;2.64;100.00;99958.78;5039398;28;20061;-81
2023/11/12 06:06:34;;;;;;;27.30;16.20;;;;;;;2.69;100.00;99959.25;5040741;28;20088;-81
2023/11/12 06:09:01;;;;;;;24.02;15.27;;;;;;;2.63;100.00;99964.91;5039961;28;20077;-81
2023/11/12 06:11:30;;;;;;;23.80;14.93;;;;;;;2.63;100.00;99965.72;5036525;28;20049;-81
2023/11/12 06:13:57;;;;;;;25.85;15.40;;;;;;;2.56;100.00;99967.13;5041868;28;20057;-81
2023/11/12 06:16:23;;;;;;;24.05;15.32;;;;;;;2.57;100.00;99967.97;5037069;28;20053;-78
2023/11/12 06:18:50;;;;;;;25.25;14.18;;;;;;;2.52;100.00;99967.50;5035696;28;20473;-80
2023/11/12 06:21:18;;;;;;;25.55;15.20;;;;;;;2.45;100.00;99974.09;5034749;28;20292;-77
2023/11/12 06:23:47;;;;;;;23.70;13.80;;;;;;;2.37;100.00;99968.69;5034901;28;20154;-81
2023/11/12 06:26:13;;;;;;;20.98;14.57;;;;;;;2.40;100.00;99968.47;5027773;28;20081;-79
2023/11/12 06:28:40;;;;;;;21.25;14.38;;;;;;;2.33;100.00;99971.53;5035057;28;20067;-82
2023/11/12 06:31:07;;;;;;;24.20;13.52;;;;;;;2.32;100.00;99967.31;5038110;28;20081;-78
2023/11/12 06:33:33;;;;;;;21.85;13.77;;;;;;;2.35;100.00;99974.00;5035215;28;20045;-81
2023/11/12 06:36:01;;;;;;;22.35;13.55;;;;;;;2.40;100.00;99978.78;5035841;28;20060;-81
2023/11/12 06:38:30;;;;;;;19.88;13.05;;;;;;;2.40;100.00;99979.59;5036194;28;20085;-81
2023/11/12 06:40:58;;;;;;;24.60;13.60;;;;;;;2.47;100.00;99974.78;5036604;28;20045;-79
2023/11/12 06:43:24;;;;;;;26.27;13.85;;;;;;;2.45;100.00;99997.31;5035862;28;20053;-80
2023/11/12 06:45:51;;;;;;;27.25;15.02;;;;;;;2.44;100.00;100000.84;5036474;28;20060;-79
2023/11/12 06:48:18;;;;;;;23.70;13.85;;;;;;;2.42;100.00;100002.72;5037119;28;20132;-80
2023/11/12 06:50:45;;;;;;;24.73;13.48;;;;;;;2.41;100.00;99995.91;5037431;28;20056;-81
2023/11/12 06:53:12;;;;;;;22.35;13.07;;;;;;;2.44;100.00;100003.44;5036628;28;20144;-81
2023/11/12 06:55:38;;;;;;;21.30;13.18;;;;;;;2.44;100.00;100008.59;5035693;28;20148;-79
2023/11/12 06:58:06;;;;;;;19.55;12.55;;;;;;;2.46;100.00;100007.53;5036432;28;20050;-81
2023/11/12 07:00:33;;;;;;;20.27;13.35;;;;;;;2.38;100.00;100006.47;5037288;28;20270;-80
2023/11/12 07:03:00;;;;;;;22.77;13.48;;;;;;;2.29;100.00;100001.13;5037038;28;20053;-79
2023/11/12 07:05:30;;;;;;;18.90;12.27;;;;;;;2.26;100.00;100009.09;5036773;28;20603;-81
2023/11/12 07:07:57;;;;;;;20.55;12.77;;;;;;;2.21;100.00;100003.47;5036783;28;20045;-81
2023/11/12 07:10:23;;;;;;;19.48;11.80;;;;;;;2.26;100.00;100009.09;5036559;28;20050;-79
2023/11/12 07:12:50;;;;;;;19.20;11.88;;;;;;;2.28;100.00;100011.56;5036290;28;20093;-79
2023/11/12 07:15:18;;;;;;;19.42;12.82;;;;;;;2.39;100.00;100010.72;5037220;28;20096;-78
2023/11/12 07:17:47;;;;;;;22.45;13.27;;;;;;;2.39;100.00;100021.84;5038408;28;20045;-81
2023/11/12 07:20:14;;;;;;;19.52;12.48;;;;;;;2.38;100.00;100021.97;5038055;28;20056;-82
2023/11/12 07:22:42;;;;;;;22.58;13.50;;;;;;;2.40;100.00;100020.91;5037958;28;20049;-83
2023/11/12 07:25:12;;;;;;;20.77;13.50;;;;;;;2.56;100.00;100025.72;5039087;28;20058;-82
2023/11/12 07:27:43;;;;;;;24.15;13.48;;;;;;;2.84;100.00;100032.13;5038847;28;20061;-82
2023/11/12 07:30:11;;;;;;;23.83;13.45;;;;;;;2.98;100.00;100027.50;5039323;28;20053;-81
2023/11/12 07:32:45;;;;;;;21.48;13.60;;;;;;;3.10;100.00;100033.47;5035693;28;20388;-81
2023/11/12 07:35:14;;;;;;;20.00;12.93;;;;;;;3.36;100.00;100039.09;5031941;28;20132;-81
2023/11/12 07:37:42;;;;;;;20.17;13.30;;;;;;;3.24;100.00;100038.34;5036154;28;20045;-83
2023/11/12 07:40:10;;;;;;;19.83;13.10;;;;;;;3.31;100.00;100043.81;5037310;28;20419;-83
2023/11/12 07:42:38;;;;;;;25.23;13.80;;;;;;;3.41;100.00;100029.22;5040360;28;20566;-83
2023/11/12 07:45:08;;;;;;;24.30;13.63;;;;;;;3.70;100.00;100044.13;5040337;28;20084;-83
2023/11/12 07:47:35;;;;;;;19.90;13.43;;;;;;;3.85;100.00;100037.66;5038892;28;20076;-82
2023/11/12 07:50:03;;;;;;;20.10;12.63;;;;;;;4.03;100.00;100038.72;5036713;28;20088;-81
2023/11/12 07:52:30;;;;;;;18.38;13.15;;;;;;;4.24;100.00;100033.53;5036314;28;20132;-81
2023/11/12 07:54:57;;;;;;;16.73;12.30;;;;;;;4.41;100.00;100030.28;5036984;28;20129;-81
2023/11/12 07:57:24;;;;;;;20.65;12.73;;;;;;;4.58;100.00;100034.03;5037222;28;20073;-81
2023/11/12 07:59:50;;;;;;;18.90;11.25;;;;;;;4.62;100.00;100032.81;5034227;28;20109;-82
2023/11/12 08:02:18;;;;;;;14.50;11.02;;;;;;;5.16;100.00;100040.16;5036042;28;20049;-81
2023/11/12 08:04:44;;;;;;;15.07;10.07;;;;;;;4.72;100.00;100020.72;5034040;28;20133;-82
2023/11/12 08:07:13;;;;;;;14.13;10.65;;;;;;;4.73;100.00;100019.72;5035950;28;20156;-80
2023/11/12 08:09:39;;;;;;;13.90;10.00;;;;;;;4.63;100.00;100024.09;5036813;28;20045;-81
2023/11/12 08:12:07;;;;;;;16.60;9.75;;;;;;;4.76;100.00;100023.84;5038969;28;20267;-82
2023/11/12 08:14:37;;;;;;;13.73;8.98;;;;;;;4.55;100.00;100024.75;5037459;28;20046;-82
2023/11/12 08:17:04;;;;;;;15.23;9.63;;;;;;;4.61;100.00;100031.19;5037337;28;20480;-83
2023/11/12 08:19:30;;;;;;;14.15;9.55;;;;;;;4.51;100.00;100030.34;5037964;28;20514;-82
2023/11/12 08:21:59;;;;;;;12.55;10.30;;;;;;;4.40;100.00;100036.44;5039058;28;20053;-81
2023/11/12 08:24:27;;;;;;;14.25;10.07;;;;;;;4.51;100.00;100040.69;5035424;28;20458;-81
2023/11/12 08:26:55;;;;;;;15.63;11.00;;;;;;;4.70;100.00;100039.94;5034568;28;20132;-81
2023/11/12 08:29:22;;;;;;;15.63;10.65;;;;;;;4.59;100.00;100040.88;5036459;28;20056;-81
2023/11/12 08:31:49;;;;;;;14.43;11.15;;;;;;;4.54;100.00;100045.63;5035084;28;20051;-81
2023/11/12 08:34:21;;;;;;;14.73;10.50;;;;;;;4.66;100.00;100054.94;5035359;28;20115;-80
2023/11/12 08:36:48;;;;;;;16.30;11.60;;;;;;;4.70;100.00;100040.75;5036124;28;20554;-80
2023/11/12 08:39:16;;;;;;;17.52;11.00;;;;;;;4.76;100.00;100047.16;5032862;28;20054;-80
2023/11/12 08:41:44;;;;;;;16.35;11.73;;;;;;;4.86;100.00;100054.00;5036183;28;20045;-81
2023/11/12 08:44:13;;;;;;;17.90;12.10;;;;;;;4.86;100.00;100060.97;5031655;28;20045;-80
2023/11/12 08:46:39;;;;;;;17.10;11.50;;;;;;;4.97;100.00;100056.50;5031494;28;20053;-81
2023/11/12 08:49:06;;;;;;;15.27;11.25;;;;;;;5.17;100.00;100059.13;5032701;28;20057;-80
2023/11/12 08:51:37;;;;;;;17.50;11.82;;;;;;;5.20;100.00;100053.66;5036431;28;20111;-81
2023/11/12 08:54:05;;;;;;;17.17;10.73;;;;;;;5.28;100.00;100053.78;5038911;28;20423;-80
2023/11/12 08:56:31;;;;;;;16.73;11.10;;;;;;;5.38;100.00;100054.59;5039317;28;20045;-81
2023/11/12 08:59:00;;;;;;;14.55;11.07;;;;;;;5.40;100.00;100059.66;5038603;28;20045;-81
2023/11/12 09:01:27;;;;;;;16.15;10.55;;;;;;;5.41;100.00;100050.94;5039324;28;20457;-81
2023/11/12 09:03:54;;;;;;;15.15;11.02;;;;;;;5.46;100.00;100054.75;5039498;28;20103;-81
2023/11/12 09:06:22;;;;;;;18.10;11.15;;;;;;;5.49;100.00;100053.66;5039026;28;20128;-81
2023/11/12 09:08:48;;;;;;;14.80;10.90;;;;;;;5.57;100.00;100059.81;5039833;28;20053;-81
2023/11/12 09:11:15;;;;;;;18.35;11.18;;;;;;;5.48;100.00;100052.84;5039538;28;20049;-82
2023/11/12 09:13:42;;;;;;;17.60;10.57;;;;;;;5.61;100.00;100058.56;5040927;28;20079;-81
2023/11/12 09:16:12;;;;;;;16.95;11.18;;;;;;;5.70;100.00;100061.28;5039050;28;20059;-82
2023/11/12 09:18:40;;;;;;;16.65;10.70;;;;;;;5.58;100.00;100051.06;5042512;28;20053;-81
2023/11/12 09:21:07;;;;;;;16.90;11.02;;;;;;;5.67;100.00;100058.00;5040223;28;20594;-81
2023/11/12 09:23:34;;;;;;;16.30;11.20;;;;;;;5.68;100.00;100053.63;5039769;28;20045;-81
2023/11/12 09:26:00;;;;;;;15.82;10.88;;;;;;;5.76;100.00;100050.34;5037643;28;20064;-82
2023/11/12 09:28:27;;;;;;;18.00;11.13;;;;;;;5.91;100.00;100036.00;5038848;28;20111;-81
2023/11/12 09:30:54;;;;;;;18.08;10.88;;;;;;;5.93;100.00;100042.69;5038479;28;20060;-82
2023/11/12 09:33:22;;;;;;;16.42;11.18;;;;;;;5.94;100.00;100038.31;5038035;28;20136;-82
2023/11/12 09:35:48;;;;;;;14.52;11.02;;;;;;;5.97;100.00;100038.03;5037620;28;20129;-81
2023/11/12 09:38:15;;;;;;;16.60;10.23;;;;;;;6.00;100.00;100045.53;5038088;28;20148;-81
2023/11/12 09:40:43;;;;;;;13.80;10.82;;;;;;;6.12;100.00;100041.81;5039208;28;20084;-81
2023/11/12 09:43:12;;;;;;;17.65;10.60;;;;;;;6.07;100.00;100041.44;5038392;28;20060;-80
2023/11/12 09:45:44;;;;;;;17.70;11.18;;;;;;;6.16;100.00;100042.34;5038873;28;20049;-80
2023/11/12 09:48:19;;;;;;;14.82;10.65;;;;;;;6.35;100.00;100047.47;5038216;28;20045;-81
2023/11/12 09:50:49;;;;;;;14.52;11.20;;;;;;;6.47;100.00;100041.13;5037877;28;20141;-80
2023/11/12 09:53:15;;;;;;;16.63;10.57;;;;;;;6.41;100.00;100039.09;5038192;28;20086;-80
2023/11/12 09:55:44;;;;;;;16.52;10.80;;;;;;;6.62;100.00;100041.44;5038274;28;20050;-80
2023/11/12 09:58:11;;;;;;;15.18;10.20;;;;;;;6.69;100.00;100039.09;5038680;28;20280;-81
2023/11/12 10:00:38;;;;;;;16.08;10.75;;;;;;;6.84;100.00;100033.25;5039434;28;20175;-81
2023/11/12 10:03:08;;;;;;;13.05;9.20;;;;;;;6.95;100.00;100035.66;5038435;28;20053;-81
2023/11/12 10:05:35;;;;;;;14.40;9.80;;;;;;;6.94;100.00;100022.81;5040959;28;20113;-81
2023/11/12 10:08:04;;;;;;;17.23;9.77;;;;;;;7.03;100.00;100021.91;5038803;28;20060;-81
2023/11/12 10:10:31;;;;;;;15.25;10.02;;;;;;;6.97;100.00;100012.09;5038534;28;20049;-81
2023/11/12 10:12:58;;;;;;;14.90;9.38;;;;;;;7.02;100.00;100019.47;5037153;28;20081;-80
2023/11/12 10:15:27;;;;;;;17.92;8.68;;;;;;;7.07;100.00;100017.25;5038762;28;20081;-80
2023/11/12 10:17:54;;;;;;;12.93;8.73;;;;;;;7.03;100.00;100011.50;5044988;28;20083;-79
2023/11/12 10:20:21;;;;;;;11.52;8.45;;;;;;;7.19;100.00;100005.63;5044785;28;20059;-79
2023/11/12 10:22:48;;;;;;;10.95;8.20;;;;;;;7.24;100.00;99995.59;5043185;28;20077;-80
2023/11/12 10:25:36;;;;;;;14.40;8.95;;;;;;;7.43;100.00;100011.03;5042168;28;20056;-80
2023/11/12 10:28:04;;;;;;;15.05;9.00;;;;;;;7.44;100.00;99999.66;5040278;28;20081;-80
2023/11/12 10:30:31;;;;;;;14.52;8.68;;;;;;;7.55;100.00;100007.22;5046921;28;20049;-80
2023/11/12 10:33:15;;;;;;;13.18;8.75;;;;;;;7.50;100.00;99999.06;5050020;28;20053;-79
2023/11/12 10:35:42;;;;;;;13.57;8.75;;;;;;;7.61;100.00;99998.78;5044586;28;20060;-80
2023/11/12 10:38:10;;;;;;;11.00;8.27;;;;;;;8.06;100.00;100000.34;5044845;28;20055;-81
2023/11/12 10:40:38;;;;;;;12.40;7.57;;;;;;;8.29;100.00;100000.66;5043242;28;20107;-80
2023/11/12 10:43:08;;;;;;;12.52;7.95;;;;;;;8.37;99.29;99997.28;5043049;28;20084;-81
2023/11/12 10:45:36;;;;;;;12.05;7.57;;;;;;;8.08;98.71;99992.38;5042584;28;20113;-79
2023/11/12 10:48:05;;;;;;;11.45;7.50;;;;;;;7.99;98.40;99991.56;5043770;28;20047;-80
2023/11/12 10:50:32;;;;;;;12.07;7.78;;;;;;;8.06;97.77;99994.34;5043078;28;20535;-81
2023/11/12 10:53:01;;;;;;;10.38;7.18;;;;;;;8.39;97.43;99993.56;5040629;28;20084;-81
2023/11/12 10:55:27;;;;;;;16.02;8.00;;;;;;;8.54;96.92;99991.13;5040287;28;20050;-82
2023/11/12 10:57:57;;;;;;;11.05;7.57;;;;;;;8.24;96.60;99979.44;5039495;28;20046;-80
2023/11/12 11:00:25;;;;;;;15.27;8.35;;;;;;;8.25;96.39;99994.91;5039145;28;20075;-82
2023/11/12 11:02:53;;;;;;;11.10;7.88;;;;;;;8.34;96.43;99993.22;5036662;28;20565;-81
2023/11/12 11:05:21;;;;;;;17.15;8.63;;;;;;;8.34;96.11;99988.00;5036936;28;20053;-81
2023/11/12 11:07:48;;;;;;;11.40;7.93;;;;;;;8.62;95.76;99997.19;5037770;28;20049;-79
2023/11/12 11:10:15;;;;;;;10.85;8.13;;;;;;;8.81;96.02;100006.56;5037170;28;20052;-81
2023/11/12 11:12:43;;;;;;;11.05;7.65;;;;;;;8.86;95.85;99998.25;5036725;28;20049;-81
2023/11/12 11:15:45;;;;;;;12.43;8.10;;;;;;;9.04;95.16;100004.13;5036757;28;20053;-80
2023/11/12 11:18:51;;;;;;;12.23;8.10;;;;;;;9.24;93.51;99994.19;5037148;28;20049;-82
2023/11/12 11:21:19;;;;;;;11.75;7.35;;;;;;;9.28;92.11;99985.88;5026666;28;20480;-81